Time;durP1;ratioP1;P1;durP2;ratioP2;P2;SDS_P1;SDS_P2;PMS_P1;PMS_P2;Temp;Humidity;BMP_temperature;BMP_pressure;BME280_temperature;BME280_humidity;BME280_pressure;Samples;Min_cycle;Max_cycle;Signal;HPM_P1;HPM_P2
2021/08/29 00:01:54;;;;;;;0.47;0.47;;;11.90;99.90;;;;;;5035144;28;20477;-84
2021/08/29 00:04:21;;;;;;;0.50;0.50;;;11.90;99.90;;;;;;5035374;28;20471;-84
2021/08/29 00:06:49;;;;;;;0.40;0.33;;;11.90;99.90;;;;;;5035086;28;20965;-84
2021/08/29 00:09:16;;;;;;;1.03;0.60;;;11.90;99.90;;;;;;5035269;28;20451;-84
2021/08/29 00:11:43;;;;;;;0.63;0.50;;;11.90;99.90;;;;;;5035267;28;20447;-84
2021/08/29 00:14:09;;;;;;;0.67;0.50;;;11.80;99.90;;;;;;5035006;28;20553;-84
2021/08/29 00:16:36;;;;;;;0.60;0.50;;;11.80;99.90;;;;;;5035222;28;20450;-84
2021/08/29 00:19:04;;;;;;;1.13;0.63;;;11.80;99.90;;;;;;5035199;28;20450;-84
2021/08/29 00:21:30;;;;;;;0.40;0.30;;;11.80;99.90;;;;;;5035068;28;20459;-84
2021/08/29 00:23:58;;;;;;;0.30;0.30;;;11.80;99.90;;;;;;5034925;28;20498;-84
2021/08/29 00:26:25;;;;;;;1.00;0.40;;;11.90;99.90;;;;;;5035134;28;20455;-84
2021/08/29 00:28:52;;;;;;;0.80;0.50;;;11.90;99.90;;;;;;5034849;28;20469;-84
2021/08/29 00:31:19;;;;;;;0.87;0.50;;;11.90;99.90;;;;;;5035027;28;20454;-84
2021/08/29 00:33:45;;;;;;;0.43;0.40;;;11.90;99.90;;;;;;5034884;28;20465;-84
2021/08/29 00:36:12;;;;;;;0.40;0.40;;;11.90;99.90;;;;;;5034814;28;20480;-84
2021/08/29 00:38:39;;;;;;;2.73;0.80;;;11.90;99.90;;;;;;5034823;28;20462;-84
2021/08/29 00:41:08;;;;;;;0.83;0.60;;;11.90;99.90;;;;;;5034680;28;20825;-84
2021/08/29 00:43:35;;;;;;;0.50;0.50;;;11.90;99.90;;;;;;5034092;28;21017;-84
2021/08/29 00:46:02;;;;;;;0.90;0.30;;;12.00;99.90;;;;;;5034377;28;20435;-84
2021/08/29 00:48:29;;;;;;;0.40;0.37;;;12.00;99.90;;;;;;5034572;28;20462;-84
2021/08/29 00:50:55;;;;;;;0.40;0.33;;;11.90;99.90;;;;;;5034755;28;20450;-84
2021/08/29 00:53:22;;;;;;;1.60;0.40;;;12.00;99.90;;;;;;5034404;28;20462;-84
2021/08/29 00:55:49;;;;;;;0.40;0.30;;;12.00;99.90;;;;;;5034130;28;20802;-84
2021/08/29 00:58:18;;;;;;;0.30;0.30;;;12.00;99.90;;;;;;5034403;28;20457;-84
2021/08/29 01:00:46;;;;;;;0.70;0.50;;;12.00;99.90;;;;;;5034335;28;20447;-84
2021/08/29 01:03:17;;;;;;;3.07;0.43;;;12.00;99.90;;;;;;5033845;28;20493;-84
2021/08/29 01:05:50;;;;;;;1.50;0.40;;;12.00;99.90;;;;;;5034185;28;20431;-84
2021/08/29 01:08:18;;;;;;;0.50;0.43;;;12.00;99.90;;;;;;5033988;28;20442;-84
2021/08/29 01:10:50;;;;;;;2.20;0.60;;;12.00;99.90;;;;;;5034190;28;20454;-83
2021/08/29 01:13:25;;;;;;;0.90;0.40;;;12.00;99.90;;;;;;5034066;28;20490;-83
2021/08/29 01:15:53;;;;;;;2.27;0.43;;;12.00;99.90;;;;;;5034099;28;20502;-83
2021/08/29 01:18:23;;;;;;;0.50;0.50;;;12.00;99.90;;;;;;5034256;28;20446;-83
2021/08/29 01:20:58;;;;;;;1.33;1.23;;;11.90;99.90;;;;;;5033994;28;20447;-83
2021/08/29 01:23:25;;;;;;;2.70;0.77;;;11.90;99.90;;;;;;5033878;28;20856;-83
2021/08/29 01:25:57;;;;;;;0.40;0.40;;;11.80;99.90;;;;;;5033885;28;20458;-82
2021/08/29 01:28:33;;;;;;;0.87;0.40;;;11.80;99.90;;;;;;5033611;28;20435;-82
2021/08/29 01:31:02;;;;;;;1.17;0.50;;;11.80;99.90;;;;;;5034055;28;20430;-83
2021/08/29 01:33:30;;;;;;;1.17;0.50;;;11.80;99.90;;;;;;5033422;28;20462;-82
2021/08/29 01:35:57;;;;;;;0.50;0.50;;;11.80;99.90;;;;;;5033949;28;20459;-82
2021/08/29 01:38:24;;;;;;;1.57;0.50;;;11.80;99.90;;;;;;5033675;28;20950;-82
2021/08/29 01:40:51;;;;;;;0.73;0.60;;;11.80;99.90;;;;;;5033649;28;20458;-82
2021/08/29 01:43:18;;;;;;;0.60;0.60;;;11.80;99.90;;;;;;5033391;28;21009;-82
2021/08/29 01:45:45;;;;;;;0.70;0.70;;;11.80;99.90;;;;;;5033418;28;20454;-82
2021/08/29 01:48:13;;;;;;;1.73;0.70;;;11.80;99.90;;;;;;5033288;28;20942;-82
2021/08/29 01:50:42;;;;;;;0.40;0.40;;;11.80;99.90;;;;;;5033402;28;20442;-82
2021/08/29 01:53:08;;;;;;;0.40;0.30;;;11.80;99.90;;;;;;5033404;28;20471;-82
2021/08/29 01:55:35;;;;;;;0.40;0.40;;;11.80;99.90;;;;;;5033436;28;20456;-82
2021/08/29 01:58:02;;;;;;;1.27;0.60;;;11.80;99.90;;;;;;5033417;28;20451;-81
2021/08/29 02:00:29;;;;;;;1.33;0.80;;;11.80;99.90;;;;;;5033398;28;20451;-81
2021/08/29 02:02:55;;;;;;;0.47;0.47;;;11.80;99.90;;;;;;5033231;28;20528;-81
2021/08/29 02:05:24;;;;;;;0.80;0.77;;;11.90;99.90;;;;;;5033360;28;20450;-81
2021/08/29 02:07:52;;;;;;;0.43;0.40;;;11.80;99.90;;;;;;5032836;28;20458;-81
2021/08/29 02:10:23;;;;;;;0.40;0.30;;;11.80;99.90;;;;;;5032947;28;20942;-81
2021/08/29 02:12:54;;;;;;;0.50;0.47;;;11.80;99.90;;;;;;5033226;28;20455;-78
2021/08/29 02:15:26;;;;;;;0.80;0.60;;;11.80;99.90;;;;;;5033107;28;20478;-78
2021/08/29 02:17:54;;;;;;;0.97;0.77;;;11.80;99.90;;;;;;5032956;28;20445;-78
2021/08/29 02:20:25;;;;;;;0.40;0.40;;;11.80;99.90;;;;;;5033219;28;20450;-78
2021/08/29 02:22:53;;;;;;;0.40;0.30;;;11.80;99.90;;;;;;5032480;28;20977;-77
2021/08/29 02:25:20;;;;;;;0.70;0.70;;;11.80;99.90;;;;;;5033117;28;20450;-78
2021/08/29 02:27:47;;;;;;;2.10;0.80;;;11.80;99.90;;;;;;5032800;28;20962;-78
2021/08/29 02:30:14;;;;;;;0.40;0.40;;;11.80;99.90;;;;;;5033155;28;20438;-78
2021/08/29 02:32:43;;;;;;;1.27;0.50;;;11.80;99.90;;;;;;5032969;28;20470;-78
2021/08/29 02:35:11;;;;;;;1.13;0.50;;;11.80;99.90;;;;;;5032788;28;20442;-78
2021/08/29 02:37:41;;;;;;;1.23;0.93;;;11.80;99.90;;;;;;5032777;28;20435;-78
2021/08/29 02:40:10;;;;;;;0.50;0.40;;;11.70;99.90;;;;;;5032680;28;20965;-78
2021/08/29 02:42:38;;;;;;;2.10;0.60;;;11.70;99.90;;;;;;5032199;28;20474;-78
2021/08/29 02:45:07;;;;;;;0.40;0.30;;;11.70;99.90;;;;;;5032955;28;20449;-78
2021/08/29 02:47:34;;;;;;;2.10;0.57;;;11.70;99.90;;;;;;5032631;28;20442;-78
2021/08/29 02:50:01;;;;;;;0.40;0.40;;;11.70;99.90;;;;;;5033254;28;20870;-78
2021/08/29 02:52:28;;;;;;;0.70;0.50;;;11.80;99.90;;;;;;5032846;28;20450;-78
2021/08/29 02:54:58;;;;;;;0.90;0.40;;;11.70;99.90;;;;;;5032477;28;20958;-79
2021/08/29 02:57:31;;;;;;;0.40;0.30;;;11.70;99.90;;;;;;5032897;28;20434;-78
2021/08/29 02:59:58;;;;;;;1.47;0.97;;;11.70;99.90;;;;;;5032910;28;20782;-79
2021/08/29 03:02:25;;;;;;;0.70;0.60;;;11.70;99.90;;;;;;5032351;28;20494;-79
2021/08/29 03:04:52;;;;;;;0.90;0.40;;;11.70;99.90;;;;;;5032718;28;20498;-79
2021/08/29 03:07:19;;;;;;;1.07;0.50;;;11.70;99.90;;;;;;5032764;28;20446;-79
2021/08/29 03:09:46;;;;;;;0.60;0.47;;;11.70;99.90;;;;;;5032434;28;20984;-79
2021/08/29 03:12:15;;;;;;;1.07;0.40;;;11.70;99.90;;;;;;5032647;28;20450;-80
2021/08/29 03:14:43;;;;;;;1.43;0.47;;;11.70;99.90;;;;;;5032513;28;20466;-80
2021/08/29 03:17:10;;;;;;;1.23;0.40;;;11.70;99.90;;;;;;5032559;28;20823;-80
2021/08/29 03:19:38;;;;;;;5.40;0.57;;;11.70;99.90;;;;;;5032787;28;20527;-80
2021/08/29 03:22:06;;;;;;;0.60;0.60;;;11.70;99.90;;;;;;5036052;28;20443;-80
2021/08/29 03:24:33;;;;;;;0.90;0.30;;;11.70;99.90;;;;;;5036033;28;20485;-80
2021/08/29 03:27:00;;;;;;;0.43;0.40;;;11.60;99.90;;;;;;5036122;28;20453;-81
2021/08/29 03:29:28;;;;;;;0.60;0.40;;;11.60;99.90;;;;;;5036121;28;20502;-81
2021/08/29 03:31:55;;;;;;;1.17;0.50;;;11.60;99.90;;;;;;5035925;28;20461;-80
2021/08/29 03:34:23;;;;;;;0.40;0.40;;;11.60;99.90;;;;;;5035932;28;20474;-80
2021/08/29 03:36:50;;;;;;;0.40;0.30;;;11.60;99.90;;;;;;5035671;28;20435;-81
2021/08/29 03:39:17;;;;;;;0.60;0.40;;;11.60;99.90;;;;;;5035794;28;20452;-81
2021/08/29 03:41:45;;;;;;;1.37;0.70;;;11.60;99.90;;;;;;5035493;28;20969;-81
2021/08/29 03:44:14;;;;;;;0.60;0.40;;;11.60;99.90;;;;;;5035976;28;20487;-81
2021/08/29 03:46:43;;;;;;;0.40;0.40;;;11.60;99.90;;;;;;5035594;28;20442;-81
2021/08/29 03:49:10;;;;;;;2.10;0.60;;;11.60;99.90;;;;;;5035700;28;20450;-81
2021/08/29 03:51:37;;;;;;;0.50;0.40;;;11.50;99.90;;;;;;5036173;28;20466;-81
2021/08/29 03:54:06;;;;;;;0.60;0.60;;;11.50;99.90;;;;;;5035478;28;20479;-81
2021/08/29 03:56:34;;;;;;;0.50;0.50;;;11.60;99.90;;;;;;5035304;28;20447;-82
2021/08/29 03:59:02;;;;;;;1.00;1.00;;;11.50;99.90;;;;;;5035975;28;20450;-82
2021/08/29 04:01:29;;;;;;;0.60;0.50;;;11.50;99.90;;;;;;5035477;28;20447;-81
2021/08/29 04:03:57;;;;;;;0.93;0.70;;;11.50;99.90;;;;;;5035127;28;20486;-81
2021/08/29 04:06:27;;;;;;;0.87;0.57;;;11.50;99.90;;;;;;5035424;28;20450;-81
2021/08/29 04:08:56;;;;;;;0.60;0.60;;;11.50;99.90;;;;;;5035383;28;20450;-81
2021/08/29 04:11:25;;;;;;;2.83;0.83;;;11.60;99.90;;;;;;5035034;28;20450;-81
2021/08/29 04:13:52;;;;;;;0.40;0.40;;;11.60;99.90;;;;;;5034958;28;20490;-81
2021/08/29 04:16:20;;;;;;;0.43;0.40;;;11.50;99.90;;;;;;5034908;28;20435;-81
2021/08/29 04:18:48;;;;;;;0.40;0.40;;;11.60;99.90;;;;;;5035466;28;20454;-80
2021/08/29 04:21:17;;;;;;;0.83;0.60;;;11.50;99.90;;;;;;5035142;28;20443;-81
2021/08/29 04:23:44;;;;;;;1.10;0.43;;;11.50;99.90;;;;;;5034936;28;20486;-81
2021/08/29 04:26:12;;;;;;;0.50;0.50;;;11.60;99.90;;;;;;5035012;28;20446;-81
2021/08/29 04:28:40;;;;;;;0.50;0.50;;;11.50;99.90;;;;;;5034922;28;20458;-81
2021/08/29 04:31:11;;;;;;;1.63;0.60;;;11.50;99.90;;;;;;5034360;28;20446;-82
2021/08/29 04:33:38;;;;;;;1.00;0.47;;;11.50;99.90;;;;;;5034675;28;21010;-81
2021/08/29 04:36:05;;;;;;;0.30;0.30;;;11.50;99.90;;;;;;5035342;28;20458;-81
2021/08/29 04:38:33;;;;;;;1.60;0.47;;;11.50;99.90;;;;;;5035297;28;20523;-81
2021/08/29 04:41:00;;;;;;;0.67;0.40;;;11.40;99.90;;;;;;5034628;28;20451;-81
2021/08/29 04:43:27;;;;;;;0.40;0.33;;;11.50;99.90;;;;;;5034550;28;20509;-81
2021/08/29 04:45:53;;;;;;;0.63;0.43;;;11.50;99.90;;;;;;5034615;28;20453;-81
2021/08/29 04:48:20;;;;;;;0.57;0.50;;;11.50;99.90;;;;;;5034483;28;20477;-81
2021/08/29 04:50:48;;;;;;;0.40;0.30;;;11.50;99.90;;;;;;5034796;28;20442;-81
2021/08/29 04:53:14;;;;;;;0.50;0.30;;;11.50;99.90;;;;;;5034075;28;20467;-81
2021/08/29 04:55:43;;;;;;;0.50;0.33;;;11.50;99.90;;;;;;5034380;28;20807;-81
2021/08/29 04:58:09;;;;;;;0.93;0.30;;;11.50;99.90;;;;;;5034851;28;20447;-81
2021/08/29 05:00:36;;;;;;;3.13;0.50;;;11.50;99.90;;;;;;5034295;28;20939;-81
2021/08/29 05:03:03;;;;;;;0.50;0.40;;;11.50;99.90;;;;;;5034122;28;20473;-81
2021/08/29 05:05:30;;;;;;;1.17;0.60;;;11.40;99.90;;;;;;5034084;28;20486;-81
2021/08/29 05:07:57;;;;;;;0.30;0.30;;;11.50;99.90;;;;;;5034166;28;20458;-81
2021/08/29 05:10:24;;;;;;;0.77;0.30;;;11.40;99.90;;;;;;5034404;28;20795;-82
2021/08/29 05:12:52;;;;;;;0.43;0.43;;;11.40;99.90;;;;;;5033755;28;20466;-82
2021/08/29 05:15:19;;;;;;;1.90;0.60;;;11.40;99.90;;;;;;5033485;28;20977;-82
2021/08/29 05:17:46;;;;;;;0.50;0.40;;;11.30;99.90;;;;;;5034357;28;20453;-82
2021/08/29 05:20:13;;;;;;;0.50;0.50;;;11.40;99.90;;;;;;5033976;28;20465;-82
2021/08/29 05:22:40;;;;;;;0.40;0.37;;;11.40;99.90;;;;;;5033849;28;20482;-82
2021/08/29 05:25:08;;;;;;;0.83;0.30;;;11.40;99.90;;;;;;5033582;28;20481;-82
2021/08/29 05:27:35;;;;;;;0.40;0.40;;;11.40;99.90;;;;;;5033792;28;20446;-82
2021/08/29 05:30:03;;;;;;;0.30;0.30;;;11.30;99.90;;;;;;5033823;28;20450;-82
2021/08/29 05:32:30;;;;;;;0.40;0.30;;;11.30;99.90;;;;;;5033393;28;20451;-82
2021/08/29 05:34:57;;;;;;;0.40;0.40;;;11.30;99.90;;;;;;5033809;28;20450;-82
2021/08/29 05:37:24;;;;;;;0.60;0.50;;;11.30;99.90;;;;;;5033700;28;20451;-81
2021/08/29 05:39:51;;;;;;;0.50;0.40;;;11.30;99.90;;;;;;5033707;28;20443;-82
2021/08/29 05:42:18;;;;;;;0.70;0.50;;;11.30;99.90;;;;;;5032912;28;20954;-82
2021/08/29 05:44:45;;;;;;;0.40;0.30;;;11.40;99.90;;;;;;5032908;28;20478;-82
2021/08/29 05:47:13;;;;;;;3.00;0.50;;;11.30;99.90;;;;;;5033812;28;20450;-82
2021/08/29 05:49:39;;;;;;;0.50;0.30;;;11.40;99.90;;;;;;5033546;28;20446;-82
2021/08/29 05:52:07;;;;;;;0.60;0.30;;;11.40;99.90;;;;;;5033508;28;20458;-82
2021/08/29 05:54:34;;;;;;;0.97;0.30;;;11.50;99.90;;;;;;5033315;28;20470;-82
2021/08/29 05:57:01;;;;;;;0.30;0.30;;;11.40;99.90;;;;;;5033492;28;20449;-82
2021/08/29 05:59:27;;;;;;;0.30;0.30;;;11.50;99.90;;;;;;5034084;28;20455;-82
2021/08/29 06:01:54;;;;;;;0.50;0.43;;;11.50;99.90;;;;;;5033058;28;20454;-83
2021/08/29 06:04:22;;;;;;;1.13;0.50;;;11.50;99.90;;;;;;5032981;28;20490;-82
2021/08/29 06:06:49;;;;;;;0.83;0.30;;;11.50;99.90;;;;;;5033364;28;20454;-82
2021/08/29 06:09:16;;;;;;;0.40;0.40;;;11.50;99.90;;;;;;5033181;28;20819;-83
2021/08/29 06:11:43;;;;;;;0.30;0.30;;;11.50;99.90;;;;;;5032976;28;20969;-83
2021/08/29 06:14:09;;;;;;;0.30;0.30;;;11.50;99.90;;;;;;5032816;28;21008;-83
2021/08/29 06:16:36;;;;;;;0.50;0.30;;;11.60;99.90;;;;;;5033161;28;20453;-82
2021/08/29 06:19:03;;;;;;;0.30;0.30;;;11.60;99.90;;;;;;5033225;28;20450;-83
2021/08/29 06:21:31;;;;;;;1.23;0.30;;;11.60;99.90;;;;;;5033212;28;20455;-83
2021/08/29 06:23:58;;;;;;;2.63;0.40;;;11.60;99.90;;;;;;5033065;28;20558;-82
2021/08/29 06:26:24;;;;;;;0.30;0.30;;;11.60;99.90;;;;;;5033313;28;20458;-82
2021/08/29 06:28:51;;;;;;;0.50;0.40;;;11.60;99.90;;;;;;5033681;28;20456;-83
2021/08/29 06:31:18;;;;;;;0.30;0.30;;;11.60;99.90;;;;;;5032965;28;20457;-82
2021/08/29 06:33:45;;;;;;;0.30;0.30;;;11.60;99.90;;;;;;5032710;28;20985;-83
2021/08/29 06:36:11;;;;;;;0.30;0.30;;;11.60;99.90;;;;;;5033343;28;20438;-82
2021/08/29 06:38:41;;;;;;;0.30;0.30;;;11.60;99.90;;;;;;5033041;28;20456;-83
2021/08/29 06:41:08;;;;;;;0.37;0.30;;;11.60;99.90;;;;;;5032964;28;20497;-82
2021/08/29 06:43:34;;;;;;;0.40;0.40;;;11.60;99.90;;;;;;5032687;28;20990;-83
2021/08/29 06:46:01;;;;;;;0.37;0.30;;;11.60;99.90;;;;;;5032877;28;20490;-82
2021/08/29 06:48:28;;;;;;;0.40;0.30;;;11.60;99.90;;;;;;5033258;28;20450;-81
2021/08/29 06:50:55;;;;;;;0.30;0.30;;;11.60;99.90;;;;;;5032936;28;20470;-82
2021/08/29 06:53:21;;;;;;;0.60;0.40;;;11.70;99.90;;;;;;5033126;28;20466;-82
2021/08/29 06:55:50;;;;;;;0.40;0.30;;;11.70;99.90;;;;;;5035913;28;20446;-82
2021/08/29 06:58:16;;;;;;;0.40;0.30;;;11.70;99.90;;;;;;5036489;28;20453;-82
2021/08/29 07:00:43;;;;;;;0.40;0.37;;;11.80;99.90;;;;;;5036679;28;20454;-82
2021/08/29 07:03:10;;;;;;;0.73;0.30;;;11.80;99.90;;;;;;5036661;28;20551;-82
2021/08/29 07:05:37;;;;;;;0.30;0.30;;;11.80;99.90;;;;;;5036543;28;20482;-82
2021/08/29 07:08:04;;;;;;;0.30;0.30;;;11.90;99.90;;;;;;5036542;28;20457;-82
2021/08/29 07:10:31;;;;;;;0.30;0.30;;;12.00;99.90;;;;;;5036505;28;20441;-83
2021/08/29 07:12:59;;;;;;;0.40;0.40;;;12.10;99.90;;;;;;5036398;28;20992;-82
2021/08/29 07:15:26;;;;;;;0.30;0.30;;;12.10;99.90;;;;;;5035874;28;20485;-83
2021/08/29 07:17:52;;;;;;;0.40;0.40;;;12.20;99.90;;;;;;5036281;28;20451;-83
2021/08/29 07:20:19;;;;;;;0.97;0.47;;;12.20;99.90;;;;;;5036223;28;20455;-83
2021/08/29 07:22:46;;;;;;;0.40;0.40;;;12.20;99.90;;;;;;5035918;28;20454;-83
2021/08/29 07:25:13;;;;;;;0.30;0.30;;;12.30;99.90;;;;;;5035941;28;20474;-83
2021/08/29 07:27:39;;;;;;;0.30;0.20;;;12.30;99.90;;;;;;5036132;28;20646;-82
2021/08/29 07:30:08;;;;;;;0.30;0.30;;;12.30;99.90;;;;;;5036180;28;20458;-82
2021/08/29 07:32:35;;;;;;;0.40;0.30;;;12.40;99.90;;;;;;5035651;28;20469;-83
2021/08/29 07:35:02;;;;;;;0.37;0.30;;;12.40;99.90;;;;;;5036299;28;20794;-83
2021/08/29 07:37:29;;;;;;;0.43;0.30;;;12.40;99.90;;;;;;5035802;28;20804;-83
2021/08/29 07:39:55;;;;;;;0.30;0.30;;;12.40;99.90;;;;;;5035589;28;20443;-84
2021/08/29 07:42:23;;;;;;;0.30;0.30;;;12.50;99.90;;;;;;5036047;28;20455;-84
2021/08/29 07:44:50;;;;;;;0.40;0.40;;;12.50;99.90;;;;;;5035829;28;20482;-83
2021/08/29 07:47:19;;;;;;;0.30;0.20;;;12.60;99.90;;;;;;5035928;28;20550;-85
2021/08/29 07:49:45;;;;;;;0.30;0.30;;;12.70;99.90;;;;;;5035685;28;20509;-85
2021/08/29 07:52:12;;;;;;;0.50;0.30;;;12.70;99.90;;;;;;5035429;28;20435;-85
2021/08/29 07:54:39;;;;;;;0.30;0.30;;;12.70;99.90;;;;;;5035341;28;20535;-84
2021/08/29 07:57:06;;;;;;;0.30;0.30;;;12.80;99.90;;;;;;5035599;28;20457;-84
2021/08/29 07:59:32;;;;;;;0.40;0.30;;;12.80;99.90;;;;;;5035301;28;20446;-84
2021/08/29 08:01:59;;;;;;;0.30;0.30;;;12.90;99.90;;;;;;5035621;28;20462;-84
2021/08/29 08:04:27;;;;;;;1.13;0.30;;;12.90;99.90;;;;;;5035233;28;20878;-84
2021/08/29 08:06:54;;;;;;;0.30;0.20;;;13.00;99.90;;;;;;5034506;28;20458;-84
2021/08/29 08:09:21;;;;;;;0.30;0.30;;;13.00;99.90;;;;;;5034939;28;20851;-84
2021/08/29 08:11:47;;;;;;;0.50;0.50;;;13.00;99.90;;;;;;5035077;28;20442;-84
2021/08/29 08:14:14;;;;;;;0.30;0.30;;;13.10;99.90;;;;;;5034888;28;20490;-84
2021/08/29 08:16:41;;;;;;;0.37;0.30;;;13.10;99.90;;;;;;5035471;28;20446;-84
2021/08/29 08:19:08;;;;;;;0.40;0.40;;;13.20;99.90;;;;;;5035168;28;20445;-83
2021/08/29 08:21:36;;;;;;;0.30;0.30;;;13.20;99.90;;;;;;5034916;28;20458;-83
2021/08/29 08:24:02;;;;;;;0.30;0.20;;;13.20;99.90;;;;;;5034942;28;20485;-84
2021/08/29 08:26:29;;;;;;;0.30;0.30;;;13.30;99.90;;;;;;5034953;28;20857;-84
2021/08/29 08:28:57;;;;;;;0.50;0.30;;;13.30;99.90;;;;;;5034681;28;20457;-83
2021/08/29 08:31:23;;;;;;;0.40;0.40;;;13.40;99.90;;;;;;5035039;28;20460;-84
2021/08/29 08:33:50;;;;;;;0.30;0.30;;;13.40;99.90;;;;;;5034869;28;20473;-84
2021/08/29 08:36:17;;;;;;;0.30;0.30;;;13.40;99.90;;;;;;5034904;28;20454;-84
2021/08/29 08:38:45;;;;;;;0.40;0.30;;;13.40;99.90;;;;;;5034951;28;20451;-84
2021/08/29 08:41:12;;;;;;;0.40;0.30;;;13.40;99.90;;;;;;5034809;28;20527;-84
2021/08/29 08:43:39;;;;;;;0.40;0.30;;;13.40;99.90;;;;;;5034621;28;20459;-85
2021/08/29 08:46:07;;;;;;;0.40;0.30;;;13.50;99.90;;;;;;5034308;28;20478;-84
2021/08/29 08:48:35;;;;;;;0.40;0.30;;;13.50;99.90;;;;;;5034788;28;20449;-84
2021/08/29 08:51:05;;;;;;;0.40;0.37;;;13.50;99.90;;;;;;5034643;28;20446;-84
2021/08/29 08:53:33;;;;;;;0.30;0.30;;;13.60;99.90;;;;;;5034445;28;20478;-83
2021/08/29 08:56:02;;;;;;;0.40;0.40;;;13.60;99.90;;;;;;5034480;28;20446;-84
2021/08/29 08:58:30;;;;;;;0.30;0.30;;;13.60;99.90;;;;;;5034446;28;20447;-84
2021/08/29 09:00:59;;;;;;;0.30;0.30;;;13.60;99.90;;;;;;5034260;28;20529;-85
2021/08/29 09:03:26;;;;;;;0.30;0.20;;;13.60;99.90;;;;;;5034151;28;20470;-84
2021/08/29 09:05:53;;;;;;;0.30;0.23;;;13.70;99.90;;;;;;5033986;28;20479;-84
2021/08/29 09:08:19;;;;;;;0.33;0.30;;;13.70;99.90;;;;;;5034125;28;20493;-84
2021/08/29 09:10:46;;;;;;;0.30;0.30;;;13.80;99.90;;;;;;5034023;28;20458;-84
2021/08/29 09:13:15;;;;;;;0.30;0.30;;;13.80;99.90;;;;;;5033666;28;20455;-84
2021/08/29 09:15:41;;;;;;;0.40;0.40;;;13.90;99.90;;;;;;5034342;28;20435;-84
2021/08/29 09:18:12;;;;;;;0.40;0.30;;;13.90;99.90;;;;;;5033969;28;20458;-83
2021/08/29 09:20:40;;;;;;;0.30;0.30;;;13.80;99.90;;;;;;5034616;28;20435;-84
2021/08/29 09:23:08;;;;;;;0.60;0.43;;;13.80;99.90;;;;;;5033884;28;20473;-83
2021/08/29 09:25:41;;;;;;;0.50;0.50;;;13.80;99.90;;;;;;5033578;28;20482;-85
2021/08/29 09:28:10;;;;;;;0.30;0.20;;;13.70;99.90;;;;;;5034014;28;20438;-84
2021/08/29 09:30:43;;;;;;;0.50;0.50;;;13.80;99.90;;;;;;5033839;28;20447;-83
2021/08/29 09:33:11;;;;;;;0.40;0.40;;;13.70;99.90;;;;;;5033791;28;20470;-84
2021/08/29 09:35:38;;;;;;;1.13;0.43;;;13.70;99.90;;;;;;5033547;28;20486;-83
2021/08/29 09:38:06;;;;;;;0.70;0.33;;;13.70;99.90;;;;;;5033907;28;20461;-83
2021/08/29 09:40:34;;;;;;;0.70;0.40;;;13.80;99.90;;;;;;5033640;28;20462;-83
2021/08/29 09:43:03;;;;;;;0.40;0.40;;;13.70;99.90;;;;;;5033559;28;20474;-83
2021/08/29 09:45:31;;;;;;;0.60;0.60;;;13.70;99.90;;;;;;5033473;28;20491;-84
2021/08/29 09:48:01;;;;;;;0.70;0.40;;;13.70;99.90;;;;;;5033764;28;20526;-84
2021/08/29 09:50:31;;;;;;;0.40;0.37;;;13.70;99.90;;;;;;5033441;28;20446;-84
2021/08/29 09:53:05;;;;;;;0.63;0.40;;;13.80;99.90;;;;;;5033430;28;20462;-83
2021/08/29 09:55:36;;;;;;;0.40;0.33;;;13.70;99.90;;;;;;5033110;28;20427;-83
2021/08/29 09:58:24;;;;;;;0.97;0.43;;;13.80;99.90;;;;;;5033242;28;20427;-81
2021/08/29 10:01:09;;;;;;;0.73;0.43;;;13.80;99.90;;;;;;5026501;28;20960;-83
2021/08/29 10:03:39;;;;;;;0.40;0.37;;;13.90;99.90;;;;;;5033125;28;20553;-83
2021/08/29 10:06:21;;;;;;;0.87;0.60;;;13.80;99.90;;;;;;5032968;28;20981;-83
2021/08/29 10:08:49;;;;;;;1.10;0.50;;;13.80;99.90;;;;;;5033081;28;20888;-83
2021/08/29 10:11:16;;;;;;;0.60;0.60;;;13.80;99.90;;;;;;5033281;28;20438;-83
2021/08/29 10:13:44;;;;;;;0.40;0.40;;;13.90;99.90;;;;;;5032761;28;20497;-83
2021/08/29 10:16:12;;;;;;;0.60;0.50;;;13.90;99.90;;;;;;5032867;28;20478;-84
2021/08/29 10:18:43;;;;;;;1.03;0.40;;;14.00;99.90;;;;;;5032965;28;20929;-83
2021/08/29 10:21:12;;;;;;;0.60;0.60;;;14.20;99.90;;;;;;5033261;28;20435;-83
2021/08/29 10:23:40;;;;;;;1.23;0.50;;;14.40;99.90;;;;;;5033178;28;20478;-83
2021/08/29 10:26:11;;;;;;;0.73;0.73;;;14.40;99.90;;;;;;5033029;28;20912;-83
2021/08/29 10:28:40;;;;;;;0.77;0.50;;;14.50;99.90;;;;;;5033178;28;20431;-83
2021/08/29 10:31:32;;;;;;;0.50;0.40;;;14.50;99.90;;;;;;5037077;28;20512;-83
2021/08/29 10:34:12;;;;;;;0.50;0.50;;;14.50;99.90;;;;;;5036582;28;20474;-83
2021/08/29 10:36:39;;;;;;;1.00;0.67;;;14.50;99.90;;;;;;5037073;28;20453;-83
2021/08/29 10:39:14;;;;;;;1.03;0.53;;;14.50;99.90;;;;;;5037265;28;20450;-83
2021/08/29 10:41:51;;;;;;;0.57;0.40;;;14.50;99.90;;;;;;5036794;28;20977;-83
2021/08/29 10:44:27;;;;;;;0.53;0.50;;;14.40;99.90;;;;;;5036674;28;20502;-83
2021/08/29 10:47:05;;;;;;;0.40;0.40;;;14.30;99.90;;;;;;5036872;28;20964;-83
2021/08/29 10:50:20;;;;;;;;;;;;;;;;;;;;;
2021/08/29 10:52:55;;;;;;;0.80;0.77;;;14.10;99.90;;;;;;5026022;28;20477;-83
2021/08/29 10:55:31;;;;;;;0.70;0.70;;;14.00;99.90;;;;;;5036548;28;20423;-81
2021/08/29 10:58:20;;;;;;;0.40;0.40;;;14.00;99.90;;;;;;5036324;28;20443;-81
2021/08/29 11:00:47;;;;;;;0.50;0.40;;;14.00;99.90;;;;;;5037246;28;20410;-83
2021/08/29 11:03:28;;;;;;;0.47;0.40;;;14.00;99.90;;;;;;5036438;28;21019;-83
2021/08/29 11:05:56;;;;;;;1.47;0.50;;;14.10;99.90;;;;;;5036763;28;20466;-83
2021/08/29 11:08:26;;;;;;;0.93;0.93;;;14.20;99.90;;;;;;5036333;28;20441;-83
2021/08/29 11:10:53;;;;;;;0.53;0.53;;;14.30;99.90;;;;;;5036871;28;20427;-85
2021/08/29 11:13:42;;;;;;;0.53;0.40;;;14.50;99.90;;;;;;5035813;28;20835;-83
2021/08/29 11:16:20;;;;;;;0.40;0.40;;;14.50;99.90;;;;;;5036399;28;20431;-83
2021/08/29 11:19:08;;;;;;;0.57;0.50;;;14.50;99.90;;;;;;5037422;28;20434;-83
2021/08/29 11:22:09;;;;;;;0.40;0.30;;;14.50;99.90;;;;;;5036211;28;20434;-83
2021/08/29 11:24:49;;;;;;;0.43;0.40;;;14.40;99.90;;;;;;5036127;28;20472;-83
2021/08/29 11:27:55;;;;;;;0.73;0.60;;;14.30;99.90;;;;;;5035930;28;20470;-82
2021/08/29 11:30:25;;;;;;;2.07;0.80;;;14.20;99.90;;;;;;5030906;28;20458;-83
2021/08/29 11:33:04;;;;;;;0.77;0.53;;;14.10;99.90;;;;;;5036087;28;20466;-82
2021/08/29 11:35:32;;;;;;;0.30;0.30;;;14.10;99.90;;;;;;5036195;28;20435;-83
2021/08/29 11:38:14;;;;;;;0.77;0.40;;;14.00;99.90;;;;;;5035988;28;20465;-82
2021/08/29 11:41:00;;;;;;;0.40;0.30;;;14.10;99.90;;;;;;5034837;28;20458;-82
2021/08/29 11:43:36;;;;;;;0.63;0.50;;;14.10;99.90;;;;;;5035889;28;20542;-83
2021/08/29 11:46:09;;;;;;;1.33;1.17;;;14.20;99.90;;;;;;5035518;28;20478;-83
2021/08/29 11:48:36;;;;;;;0.60;0.50;;;14.10;99.90;;;;;;5035856;28;20439;-83
2021/08/29 11:51:04;;;;;;;0.40;0.40;;;14.20;99.90;;;;;;5035736;28;20451;-83
2021/08/29 11:53:43;;;;;;;0.60;0.50;;;14.20;99.90;;;;;;5035657;28;20462;-83
2021/08/29 11:56:11;;;;;;;0.53;0.40;;;14.30;99.90;;;;;;5035553;28;20542;-82
2021/08/29 11:58:38;;;;;;;1.13;0.40;;;14.30;99.90;;;;;;5035235;28;20440;-82
2021/08/29 12:01:06;;;;;;;1.10;1.00;;;14.40;99.90;;;;;;5035478;28;20458;-83
2021/08/29 12:03:37;;;;;;;0.30;0.30;;;14.30;99.90;;;;;;5035458;28;20471;-82
2021/08/29 12:06:08;;;;;;;1.27;0.73;;;14.20;99.90;;;;;;5035292;28;20486;-83
2021/08/29 12:08:49;;;;;;;0.70;0.40;;;14.20;99.90;;;;;;5035200;28;20915;-82
2021/08/29 12:11:18;;;;;;;0.40;0.37;;;14.20;99.90;;;;;;5035390;28;20431;-82
2021/08/29 12:13:45;;;;;;;0.50;0.50;;;14.20;99.90;;;;;;5035620;28;20497;-82
2021/08/29 12:16:12;;;;;;;0.30;0.30;;;14.20;99.90;;;;;;5035271;28;20442;-82
2021/08/29 12:18:40;;;;;;;1.10;0.30;;;14.30;99.90;;;;;;5035365;28;20419;-82
2021/08/29 12:21:09;;;;;;;0.30;0.30;;;14.30;99.90;;;;;;5035312;28;20446;-82
2021/08/29 12:23:36;;;;;;;0.50;0.40;;;14.40;99.90;;;;;;5035053;28;20529;-82
2021/08/29 12:26:05;;;;;;;0.67;0.40;;;14.50;99.90;;;;;;5035258;28;20490;-82
2021/08/29 12:28:34;;;;;;;0.40;0.30;;;14.50;99.90;;;;;;5034766;28;20451;-82
2021/08/29 12:31:02;;;;;;;0.40;0.40;;;14.50;99.90;;;;;;5034675;28;20442;-82
2021/08/29 12:33:30;;;;;;;4.70;0.50;;;14.50;99.90;;;;;;5034918;28;20471;-82
2021/08/29 12:35:58;;;;;;;0.50;0.40;;;14.50;99.90;;;;;;5034932;28;20447;-83
2021/08/29 12:38:27;;;;;;;0.60;0.40;;;14.50;99.90;;;;;;5034439;28;20446;-82
2021/08/29 12:40:55;;;;;;;0.30;0.30;;;14.40;99.90;;;;;;5034744;28;20500;-82
2021/08/29 12:43:24;;;;;;;0.50;0.40;;;14.30;99.90;;;;;;5034378;28;20990;-82
2021/08/29 12:45:52;;;;;;;0.30;0.30;;;14.20;99.90;;;;;;5034421;28;20474;-82
2021/08/29 12:48:20;;;;;;;0.30;0.30;;;14.10;99.90;;;;;;5034329;28;20435;-82
2021/08/29 12:50:49;;;;;;;0.33;0.30;;;14.10;99.90;;;;;;5034324;28;20434;-82
2021/08/29 12:53:20;;;;;;;0.30;0.30;;;14.10;99.90;;;;;;5034050;28;20989;-82
2021/08/29 12:55:50;;;;;;;2.00;0.40;;;14.10;99.90;;;;;;5034566;28;20423;-81
2021/08/29 12:58:20;;;;;;;1.00;0.40;;;14.10;99.90;;;;;;5034541;28;20450;-82